ADDS METAR Data INFO
IDs: Format: Raw Decoded Include TAF

Data at: 2327 UTC 19 Oct 2017

KMHT 192253Z 19009KT 10SM BKN250 19/06 A2996 RMK AO2 SLP157 T01890056
KMHT 192153Z 19011KT 10SM SCT250 20/05 A2995 RMK AO2 SLP155 T02000050
KMHT 192053Z 21008G17KT 10SM FEW180 BKN250 22/04 A2996 RMK AO2 SLP157 T02220039 56027
KMHT 191953Z 21012G19KT 10SM FEW200 SCT250 23/04 A2998 RMK AO2 SLP165 T02280039
KMHT 191853Z 23009G18KT 10SM FEW250 23/03 A3001 RMK AO2 SLP174 T02330033
KMHT 191753Z 20013KT 10SM FEW250 23/04 A3004 RMK AO2 SLP184 T02330039 10233 20061 58034
KMHT 191653Z 19011G18KT 10SM FEW250 22/07 A3007 RMK AO2 SLP196 T02220072
KMHT 191553Z 20008G17KT 10SM SCT250 20/09 A3011 RMK AO2 SLP209 T02000094
KMHT 191453Z 18007KT 10SM SCT250 17/09 A3014 RMK AO2 SLP219 T01670094 58017
KMHT 191353Z 20004KT 10SM SCT250 12/09 A3017 RMK AO2 SLP229 T01220089
KMHT 191253Z 00000KT 10SM SCT250 08/06 A3018 RMK AO2 SLP234 T00780061
KMHT 191153Z 00000KT 10SM FEW250 06/04 A3019 RMK AO2 SLP238 T00560044 10078 20050 56007
KMHT 191053Z 00000KT 10SM CLR 05/04 A3020 RMK AO2 SLP240 T00500039
KMHT 190953Z 00000KT 10SM CLR 06/04 A3020 RMK AO2 SLP241 T00560039
KMHT 190853Z 00000KT 10SM CLR 06/04 A3021 RMK AO2 SLP244 T00610044 56005
KMHT 190753Z 00000KT 10SM CLR 07/06 A3021 RMK AO2 SLP244 T00670056
KMHT 190653Z 00000KT 10SM CLR 07/06 A3022 RMK AO2 SLP246 T00720056
KMHT 190553Z 00000KT 10SM CLR 08/06 A3023 RMK AO2 SLP248 T00780061 10156 20078 56008
KMHT 190453Z 00000KT 10SM CLR 09/07 A3023 RMK AO2 SLP249 T00890067 402280044
KMHT 190353Z 35004KT 10SM CLR 09/07 A3024 RMK AO2 SLP253 T00940072
KMHT 190253Z 00000KT 10SM CLR 11/08 A3025 RMK AO2 SLP257 T01110078 51006
KMHT 190153Z 00000KT 10SM CLR 11/08 A3025 RMK AO2 SLP256 T01110083
KMHT 190053Z 00000KT 10SM CLR 13/08 A3024 RMK AO2 SLP255 T01330078
KMHT 182353Z 00000KT 10SM CLR 16/07 A3023 RMK AO2 SLP252 T01560072 10228 20150 51014
KMHT 182253Z 15004KT 10SM CLR 17/08 A3022 RMK AO2 SLP249 T01670083
KMHT 182153Z 16004KT 10SM FEW250 19/07 A3020 RMK AO2 SLP241 T01940067
KMHT 182053Z 17003KT 10SM FEW250 22/03 A3019 RMK AO2 SLP237 T02170033 55003
KMHT 181953Z 25003KT 10SM FEW250 22/04 A3019 RMK AO2 SLP237 T02220039
KMHT 181853Z 00000KT 10SM FEW250 22/04 A3019 RMK AO2 SLP236 T02170044
KMHT 181753Z 00000KT 10SM FEW250 21/06 A3020 RMK AO2 SLP239 T02110056 10211 20050 58013
KMHT 181653Z 00000KT 10SM FEW250 19/06 A3021 RMK AO2 SLP245 T01940061
KMHT 181553Z VRB04KT 10SM FEW250 18/07 A3024 RMK AO2 SLP252 T01780067
KMHT 181453Z 25003KT 10SM FEW250 16/06 A3024 RMK AO2 SLP253 T01560056 51011
KMHT 181353Z 00000KT 10SM FEW250 12/04 A3024 RMK AO2 SLP254 T01220044
KMHT 181253Z 16003KT 10SM FEW250 08/03 A3022 RMK AO2 SLP250 T00830033
KMHT 181153Z 21005KT 10SM FEW250 05/03 A3020 RMK AO2 SLP244 T00500028 10072 20044 53013